sensor_id;sensor_type;location;lat;lon;timestamp;P1;durP1;ratioP1;P2;durP2;ratioP2
25627;SDS011;40915;50.826;4.356;2022-11-23T00:01:10;17.53;;;2.70;;
25627;SDS011;40915;50.826;4.356;2022-11-23T00:03:47;7.65;;;2.15;;
25627;SDS011;40915;50.826;4.356;2022-11-23T00:06:14;6.30;;;1.87;;
25627;SDS011;40915;50.826;4.356;2022-11-23T00:08:40;10.75;;;2.38;;
25627;SDS011;40915;50.826;4.356;2022-11-23T00:11:06;12.73;;;2.40;;
25627;SDS011;40915;50.826;4.356;2022-11-23T00:13:32;11.67;;;2.47;;
25627;SDS011;40915;50.826;4.356;2022-11-23T00:18:31;10.50;;;2.40;;
25627;SDS011;40915;50.826;4.356;2022-11-23T00:20:57;12.23;;;2.00;;
25627;SDS011;40915;50.826;4.356;2022-11-23T00:23:22;8.70;;;2.03;;
25627;SDS011;40915;50.826;4.356;2022-11-23T00:25:48;10.63;;;1.77;;
25627;SDS011;40915;50.826;4.356;2022-11-23T00:28:13;8.23;;;1.80;;
25627;SDS011;40915;50.826;4.356;2022-11-23T00:30:39;13.00;;;2.60;;
25627;SDS011;40915;50.826;4.356;2022-11-23T00:33:04;10.23;;;2.30;;
25627;SDS011;40915;50.826;4.356;2022-11-23T00:35:30;10.80;;;2.60;;
25627;SDS011;40915;50.826;4.356;2022-11-23T00:37:56;10.50;;;2.33;;
25627;SDS011;40915;50.826;4.356;2022-11-23T00:40:21;7.73;;;1.93;;
25627;SDS011;40915;50.826;4.356;2022-11-23T00:42:47;13.70;;;2.60;;
25627;SDS011;40915;50.826;4.356;2022-11-23T00:45:12;9.17;;;2.43;;
25627;SDS011;40915;50.826;4.356;2022-11-23T00:47:38;9.93;;;2.00;;
25627;SDS011;40915;50.826;4.356;2022-11-23T00:50:03;6.63;;;1.97;;
25627;SDS011;40915;50.826;4.356;2022-11-23T00:52:29;9.23;;;2.00;;
25627;SDS011;40915;50.826;4.356;2022-11-23T00:54:55;10.33;;;2.20;;
25627;SDS011;40915;50.826;4.356;2022-11-23T00:57:21;14.23;;;2.40;;
25627;SDS011;40915;50.826;4.356;2022-11-23T00:59:46;10.23;;;2.33;;
25627;SDS011;40915;50.826;4.356;2022-11-23T01:02:12;7.67;;;1.97;;
25627;SDS011;40915;50.826;4.356;2022-11-23T01:04:38;11.33;;;1.90;;
25627;SDS011;40915;50.826;4.356;2022-11-23T01:07:03;7.97;;;1.87;;
25627;SDS011;40915;50.826;4.356;2022-11-23T01:09:29;11.20;;;1.97;;
25627;SDS011;40915;50.826;4.356;2022-11-23T01:11:54;10.20;;;2.10;;
25627;SDS011;40915;50.826;4.356;2022-11-23T01:14:20;13.33;;;2.20;;
25627;SDS011;40915;50.826;4.356;2022-11-23T01:16:46;12.00;;;2.60;;
25627;SDS011;40915;50.826;4.356;2022-11-23T01:19:13;7.97;;;2.13;;
25627;SDS011;40915;50.826;4.356;2022-11-23T01:21:41;9.23;;;3.33;;
25627;SDS011;40915;50.826;4.356;2022-11-23T01:24:08;10.17;;;2.30;;
25627;SDS011;40915;50.826;4.356;2022-11-23T01:26:36;10.30;;;2.20;;
25627;SDS011;40915;50.826;4.356;2022-11-23T01:29:02;9.63;;;3.17;;
25627;SDS011;40915;50.826;4.356;2022-11-23T01:31:28;9.90;;;2.40;;
25627;SDS011;40915;50.826;4.356;2022-11-23T01:33:57;9.97;;;2.20;;
25627;SDS011;40915;50.826;4.356;2022-11-23T01:36:25;10.33;;;2.10;;
25627;SDS011;40915;50.826;4.356;2022-11-23T01:38:53;13.97;;;2.50;;
25627;SDS011;40915;50.826;4.356;2022-11-23T01:41:20;11.17;;;2.53;;
25627;SDS011;40915;50.826;4.356;2022-11-23T01:43:48;13.50;;;2.20;;
25627;SDS011;40915;50.826;4.356;2022-11-23T01:46:14;10.87;;;2.40;;
25627;SDS011;40915;50.826;4.356;2022-11-23T01:51:25;10.00;;;1.97;;
25627;SDS011;40915;50.826;4.356;2022-11-23T01:53:57;13.97;;;2.17;;
25627;SDS011;40915;50.826;4.356;2022-11-23T01:56:28;8.57;;;2.27;;
25627;SDS011;40915;50.826;4.356;2022-11-23T01:58:58;10.43;;;2.03;;
25627;SDS011;40915;50.826;4.356;2022-11-23T02:01:26;11.43;;;2.33;;
25627;SDS011;40915;50.826;4.356;2022-11-23T02:03:52;13.67;;;2.40;;
25627;SDS011;40915;50.826;4.356;2022-11-23T02:06:22;10.67;;;2.30;;
25627;SDS011;40915;50.826;4.356;2022-11-23T02:08:48;14.13;;;2.33;;
25627;SDS011;40915;50.826;4.356;2022-11-23T02:11:15;12.23;;;2.23;;
25627;SDS011;40915;50.826;4.356;2022-11-23T02:13:44;14.60;;;3.00;;
25627;SDS011;40915;50.826;4.356;2022-11-23T02:16:12;13.10;;;2.27;;
25627;SDS011;40915;50.826;4.356;2022-11-23T02:18:40;12.50;;;2.63;;
25627;SDS011;40915;50.826;4.356;2022-11-23T02:21:07;10.13;;;2.27;;
25627;SDS011;40915;50.826;4.356;2022-11-23T02:26:26;10.30;;;2.23;;
25627;SDS011;40915;50.826;4.356;2022-11-23T02:29:42;8.17;;;2.23;;
25627;SDS011;40915;50.826;4.356;2022-11-23T02:31:50;12.60;;;2.73;;
25627;SDS011;40915;50.826;4.356;2022-11-23T02:34:16;15.33;;;2.60;;
25627;SDS011;40915;50.826;4.356;2022-11-23T02:36:46;14.47;;;3.17;;
25627;SDS011;40915;50.826;4.356;2022-11-23T02:39:15;13.10;;;4.00;;
25627;SDS011;40915;50.826;4.356;2022-11-23T02:41:52;15.10;;;3.57;;
25627;SDS011;40915;50.826;4.356;2022-11-23T02:46:49;13.10;;;3.40;;
25627;SDS011;40915;50.826;4.356;2022-11-23T02:49:16;14.23;;;3.63;;
25627;SDS011;40915;50.826;4.356;2022-11-23T02:51:41;15.43;;;3.93;;
25627;SDS011;40915;50.826;4.356;2022-11-23T02:54:07;16.50;;;3.90;;
25627;SDS011;40915;50.826;4.356;2022-11-23T02:56:32;14.60;;;3.77;;
25627;SDS011;40915;50.826;4.356;2022-11-23T02:58:58;16.57;;;3.90;;
25627;SDS011;40915;50.826;4.356;2022-11-23T03:01:24;12.07;;;3.17;;
25627;SDS011;40915;50.826;4.356;2022-11-23T03:03:49;11.73;;;3.13;;
25627;SDS011;40915;50.826;4.356;2022-11-23T03:06:15;10.90;;;2.87;;
25627;SDS011;40915;50.826;4.356;2022-11-23T03:08:40;10.87;;;2.40;;
25627;SDS011;40915;50.826;4.356;2022-11-23T03:11:06;12.00;;;2.60;;
25627;SDS011;40915;50.826;4.356;2022-11-23T03:13:32;18.67;;;2.67;;
25627;SDS011;40915;50.826;4.356;2022-11-23T03:15:57;10.60;;;2.40;;
25627;SDS011;40915;50.826;4.356;2022-11-23T03:18:24;15.93;;;2.50;;
25627;SDS011;40915;50.826;4.356;2022-11-23T03:20:50;12.70;;;2.50;;
25627;SDS011;40915;50.826;4.356;2022-11-23T03:23:15;14.40;;;2.30;;
25627;SDS011;40915;50.826;4.356;2022-11-23T03:25:41;11.27;;;2.20;;
25627;SDS011;40915;50.826;4.356;2022-11-23T03:28:06;15.33;;;2.70;;
25627;SDS011;40915;50.826;4.356;2022-11-23T03:30:32;14.07;;;2.83;;
25627;SDS011;40915;50.826;4.356;2022-11-23T03:32:58;17.53;;;3.33;;
25627;SDS011;40915;50.826;4.356;2022-11-23T03:35:23;16.43;;;2.97;;
25627;SDS011;40915;50.826;4.356;2022-11-23T03:37:49;15.97;;;2.80;;
25627;SDS011;40915;50.826;4.356;2022-11-23T03:40:15;14.50;;;2.77;;
25627;SDS011;40915;50.826;4.356;2022-11-23T03:42:40;12.87;;;2.70;;
25627;SDS011;40915;50.826;4.356;2022-11-23T03:45:06;11.50;;;2.50;;
25627;SDS011;40915;50.826;4.356;2022-11-23T03:47:33;15.03;;;2.87;;
25627;SDS011;40915;50.826;4.356;2022-11-23T03:49:59;17.07;;;3.00;;
25627;SDS011;40915;50.826;4.356;2022-11-23T03:52:24;13.23;;;2.67;;
25627;SDS011;40915;50.826;4.356;2022-11-23T03:54:50;13.97;;;2.70;;
25627;SDS011;40915;50.826;4.356;2022-11-23T03:57:15;10.83;;;2.97;;
25627;SDS011;40915;50.826;4.356;2022-11-23T03:59:41;9.23;;;2.23;;
25627;SDS011;40915;50.826;4.356;2022-11-23T04:02:07;15.00;;;2.60;;
25627;SDS011;40915;50.826;4.356;2022-11-23T04:04:33;10.40;;;2.40;;
25627;SDS011;40915;50.826;4.356;2022-11-23T04:06:59;9.27;;;2.40;;
25627;SDS011;40915;50.826;4.356;2022-11-23T04:09:24;10.97;;;2.70;;
25627;SDS011;40915;50.826;4.356;2022-11-23T04:11:50;13.93;;;2.90;;
25627;SDS011;40915;50.826;4.356;2022-11-23T04:14:15;14.33;;;3.00;;
25627;SDS011;40915;50.826;4.356;2022-11-23T04:16:41;14.23;;;3.10;;
25627;SDS011;40915;50.826;4.356;2022-11-23T04:19:07;7.77;;;2.67;;
25627;SDS011;40915;50.826;4.356;2022-11-23T04:21:32;15.60;;;3.00;;
25627;SDS011;40915;50.826;4.356;2022-11-23T04:23:58;12.83;;;2.60;;
25627;SDS011;40915;50.826;4.356;2022-11-23T04:26:24;13.67;;;2.90;;
25627;SDS011;40915;50.826;4.356;2022-11-23T04:28:49;12.07;;;2.43;;
25627;SDS011;40915;50.826;4.356;2022-11-23T04:31:15;19.30;;;3.70;;
25627;SDS011;40915;50.826;4.356;2022-11-23T04:33:40;15.93;;;2.80;;
25627;SDS011;40915;50.826;4.356;2022-11-23T04:36:06;16.57;;;2.77;;
25627;SDS011;40915;50.826;4.356;2022-11-23T04:38:32;18.63;;;3.10;;
25627;SDS011;40915;50.826;4.356;2022-11-23T04:40:58;16.27;;;3.17;;
25627;SDS011;40915;50.826;4.356;2022-11-23T04:43:23;18.20;;;3.23;;
25627;SDS011;40915;50.826;4.356;2022-11-23T04:45:49;15.80;;;2.70;;
25627;SDS011;40915;50.826;4.356;2022-11-23T04:48:15;9.83;;;2.77;;
25627;SDS011;40915;50.826;4.356;2022-11-23T04:50:40;17.43;;;3.13;;
25627;SDS011;40915;50.826;4.356;2022-11-23T04:53:06;14.47;;;2.87;;
25627;SDS011;40915;50.826;4.356;2022-11-23T04:55:32;17.70;;;2.80;;
25627;SDS011;40915;50.826;4.356;2022-11-23T04:57:58;12.23;;;3.00;;
25627;SDS011;40915;50.826;4.356;2022-11-23T05:00:24;13.67;;;2.43;;
25627;SDS011;40915;50.826;4.356;2022-11-23T05:02:50;13.83;;;3.23;;
25627;SDS011;40915;50.826;4.356;2022-11-23T05:05:15;11.63;;;2.40;;
25627;SDS011;40915;50.826;4.356;2022-11-23T05:07:41;13.43;;;2.37;;
25627;SDS011;40915;50.826;4.356;2022-11-23T05:10:07;18.60;;;2.67;;
25627;SDS011;40915;50.826;4.356;2022-11-23T05:12:33;12.60;;;2.80;;
25627;SDS011;40915;50.826;4.356;2022-11-23T05:15:00;15.13;;;2.83;;
25627;SDS011;40915;50.826;4.356;2022-11-23T05:17:25;11.17;;;2.53;;
25627;SDS011;40915;50.826;4.356;2022-11-23T05:19:51;15.83;;;2.80;;
25627;SDS011;40915;50.826;4.356;2022-11-23T05:22:17;13.63;;;2.93;;
25627;SDS011;40915;50.826;4.356;2022-11-23T05:24:42;13.43;;;2.50;;
25627;SDS011;40915;50.826;4.356;2022-11-23T05:27:08;16.33;;;2.80;;
25627;SDS011;40915;50.826;4.356;2022-11-23T05:29:34;13.03;;;2.37;;
25627;SDS011;40915;50.826;4.356;2022-11-23T05:32:00;15.80;;;3.30;;
25627;SDS011;40915;50.826;4.356;2022-11-23T05:34:26;15.57;;;2.63;;
25627;SDS011;40915;50.826;4.356;2022-11-23T05:36:51;15.93;;;2.60;;
25627;SDS011;40915;50.826;4.356;2022-11-23T05:39:17;12.63;;;2.80;;
25627;SDS011;40915;50.826;4.356;2022-11-23T05:41:43;13.13;;;2.47;;
25627;SDS011;40915;50.826;4.356;2022-11-23T05:44:08;13.93;;;2.80;;
25627;SDS011;40915;50.826;4.356;2022-11-23T05:46:34;11.83;;;2.40;;
25627;SDS011;40915;50.826;4.356;2022-11-23T05:48:59;13.60;;;3.13;;
25627;SDS011;40915;50.826;4.356;2022-11-23T05:51:25;14.77;;;2.70;;
25627;SDS011;40915;50.826;4.356;2022-11-23T05:53:50;14.37;;;2.97;;
25627;SDS011;40915;50.826;4.356;2022-11-23T05:56:16;14.53;;;2.83;;
25627;SDS011;40915;50.826;4.356;2022-11-23T05:58:41;15.67;;;3.20;;
25627;SDS011;40915;50.826;4.356;2022-11-23T06:01:07;10.83;;;2.57;;
25627;SDS011;40915;50.826;4.356;2022-11-23T06:03:33;10.90;;;2.80;;
25627;SDS011;40915;50.826;4.356;2022-11-23T06:05:58;14.83;;;2.97;;
25627;SDS011;40915;50.826;4.356;2022-11-23T06:08:24;14.23;;;2.47;;
25627;SDS011;40915;50.826;4.356;2022-11-23T06:10:49;14.63;;;2.70;;
25627;SDS011;40915;50.826;4.356;2022-11-23T06:13:15;12.13;;;2.53;;
25627;SDS011;40915;50.826;4.356;2022-11-23T06:15:40;12.93;;;2.40;;
25627;SDS011;40915;50.826;4.356;2022-11-23T06:18:06;17.97;;;3.00;;
25627;SDS011;40915;50.826;4.356;2022-11-23T06:20:33;12.90;;;2.40;;
25627;SDS011;40915;50.826;4.356;2022-11-23T06:22:58;16.07;;;2.40;;
25627;SDS011;40915;50.826;4.356;2022-11-23T06:25:24;11.70;;;2.47;;
25627;SDS011;40915;50.826;4.356;2022-11-23T06:27:53;13.77;;;2.30;;
25627;SDS011;40915;50.826;4.356;2022-11-23T06:30:23;18.33;;;3.13;;
25627;SDS011;40915;50.826;4.356;2022-11-23T06:32:49;18.80;;;3.27;;
25627;SDS011;40915;50.826;4.356;2022-11-23T06:35:15;12.57;;;2.77;;
25627;SDS011;40915;50.826;4.356;2022-11-23T06:37:41;11.80;;;2.33;;
25627;SDS011;40915;50.826;4.356;2022-11-23T06:40:07;15.67;;;3.20;;
25627;SDS011;40915;50.826;4.356;2022-11-23T06:42:34;15.87;;;3.03;;
25627;SDS011;40915;50.826;4.356;2022-11-23T06:44:59;17.10;;;3.10;;
25627;SDS011;40915;50.826;4.356;2022-11-23T06:47:26;11.23;;;2.37;;
25627;SDS011;40915;50.826;4.356;2022-11-23T06:49:52;16.20;;;3.23;;
25627;SDS011;40915;50.826;4.356;2022-11-23T06:52:18;15.70;;;2.70;;
25627;SDS011;40915;50.826;4.356;2022-11-23T06:54:44;13.10;;;2.60;;
25627;SDS011;40915;50.826;4.356;2022-11-23T06:57:09;13.67;;;2.87;;
25627;SDS011;40915;50.826;4.356;2022-11-23T06:59:35;16.03;;;2.87;;
25627;SDS011;40915;50.826;4.356;2022-11-23T07:02:00;11.73;;;2.60;;
25627;SDS011;40915;50.826;4.356;2022-11-23T07:04:26;16.40;;;3.03;;
25627;SDS011;40915;50.826;4.356;2022-11-23T07:06:52;17.80;;;3.10;;
25627;SDS011;40915;50.826;4.356;2022-11-23T07:09:17;12.33;;;3.03;;
25627;SDS011;40915;50.826;4.356;2022-11-23T07:11:43;12.77;;;2.93;;
25627;SDS011;40915;50.826;4.356;2022-11-23T07:14:08;13.90;;;2.97;;
25627;SDS011;40915;50.826;4.356;2022-11-23T07:16:34;15.87;;;3.13;;
25627;SDS011;40915;50.826;4.356;2022-11-23T07:18:59;16.77;;;2.90;;
25627;SDS011;40915;50.826;4.356;2022-11-23T07:21:25;18.67;;;3.70;;
25627;SDS011;40915;50.826;4.356;2022-11-23T07:23:51;17.10;;;3.17;;
25627;SDS011;40915;50.826;4.356;2022-11-23T07:26:16;12.13;;;2.97;;
25627;SDS011;40915;50.826;4.356;2022-11-23T07:28:42;17.53;;;3.27;;
25627;SDS011;40915;50.826;4.356;2022-11-23T07:31:07;20.93;;;4.93;;
25627;SDS011;40915;50.826;4.356;2022-11-23T07:33:33;14.37;;;3.13;;
25627;SDS011;40915;50.826;4.356;2022-11-23T07:35:59;15.53;;;3.20;;
25627;SDS011;40915;50.826;4.356;2022-11-23T07:38:26;18.13;;;3.40;;
25627;SDS011;40915;50.826;4.356;2022-11-23T07:40:52;15.53;;;3.47;;
25627;SDS011;40915;50.826;4.356;2022-11-23T07:43:18;20.47;;;3.53;;
25627;SDS011;40915;50.826;4.356;2022-11-23T07:45:43;14.13;;;2.90;;
25627;SDS011;40915;50.826;4.356;2022-11-23T07:48:09;13.77;;;3.50;;
25627;SDS011;40915;50.826;4.356;2022-11-23T07:50:36;19.43;;;3.63;;
25627;SDS011;40915;50.826;4.356;2022-11-23T07:53:04;11.37;;;3.03;;
25627;SDS011;40915;50.826;4.356;2022-11-23T07:55:30;13.87;;;3.53;;
25627;SDS011;40915;50.826;4.356;2022-11-23T07:57:57;17.47;;;3.50;;
25627;SDS011;40915;50.826;4.356;2022-11-23T08:00:24;15.53;;;3.00;;
25627;SDS011;40915;50.826;4.356;2022-11-23T08:02:51;13.23;;;3.00;;
25627;SDS011;40915;50.826;4.356;2022-11-23T08:05:17;14.87;;;3.53;;
25627;SDS011;40915;50.826;4.356;2022-11-23T08:07:43;14.90;;;3.50;;
25627;SDS011;40915;50.826;4.356;2022-11-23T08:10:09;16.20;;;3.55;;
25627;SDS011;40915;50.826;4.356;2022-11-23T08:12:38;16.03;;;3.67;;
25627;SDS011;40915;50.826;4.356;2022-11-23T08:15:04;15.27;;;2.80;;
25627;SDS011;40915;50.826;4.356;2022-11-23T08:17:30;15.20;;;3.90;;
25627;SDS011;40915;50.826;4.356;2022-11-23T08:19:56;13.37;;;2.90;;
25627;SDS011;40915;50.826;4.356;2022-11-23T08:22:21;14.07;;;3.10;;
25627;SDS011;40915;50.826;4.356;2022-11-23T08:24:47;10.57;;;2.27;;
25627;SDS011;40915;50.826;4.356;2022-11-23T08:27:13;15.80;;;3.07;;
25627;SDS011;40915;50.826;4.356;2022-11-23T08:29:40;10.37;;;2.40;;
25627;SDS011;40915;50.826;4.356;2022-11-23T08:32:06;14.37;;;2.90;;
25627;SDS011;40915;50.826;4.356;2022-11-23T08:34:31;9.60;;;3.00;;
25627;SDS011;40915;50.826;4.356;2022-11-23T08:36:57;11.77;;;2.77;;
25627;SDS011;40915;50.826;4.356;2022-11-23T08:39:23;14.33;;;2.97;;
25627;SDS011;40915;50.826;4.356;2022-11-23T08:41:48;12.57;;;2.97;;
25627;SDS011;40915;50.826;4.356;2022-11-23T08:44:14;14.70;;;3.20;;
25627;SDS011;40915;50.826;4.356;2022-11-23T08:46:39;11.00;;;2.77;;
25627;SDS011;40915;50.826;4.356;2022-11-23T08:49:05;15.57;;;2.83;;
25627;SDS011;40915;50.826;4.356;2022-11-23T08:51:31;13.10;;;2.60;;
25627;SDS011;40915;50.826;4.356;2022-11-23T08:53:57;10.83;;;3.00;;
25627;SDS011;40915;50.826;4.356;2022-11-23T08:56:23;13.47;;;2.40;;
25627;SDS011;40915;50.826;4.356;2022-11-23T08:58:48;8.73;;;2.53;;
25627;SDS011;40915;50.826;4.356;2022-11-23T09:01:15;8.70;;;2.73;;
25627;SDS011;40915;50.826;4.356;2022-11-23T09:03:41;8.83;;;2.37;;
25627;SDS011;40915;50.826;4.356;2022-11-23T09:06:07;11.77;;;2.90;;
25627;SDS011;40915;50.826;4.356;2022-11-23T09:08:33;12.77;;;3.80;;
25627;SDS011;40915;50.826;4.356;2022-11-23T09:11:02;9.53;;;2.60;;
25627;SDS011;40915;50.826;4.356;2022-11-23T09:13:30;10.43;;;3.03;;
25627;SDS011;40915;50.826;4.356;2022-11-23T09:15:59;9.47;;;2.83;;
25627;SDS011;40915;50.826;4.356;2022-11-23T09:18:26;9.70;;;2.50;;
25627;SDS011;40915;50.826;4.356;2022-11-23T09:20:54;9.10;;;2.60;;
25627;SDS011;40915;50.826;4.356;2022-11-23T09:23:20;9.17;;;2.50;;
25627;SDS011;40915;50.826;4.356;2022-11-23T09:25:46;9.30;;;2.50;;
25627;SDS011;40915;50.826;4.356;2022-11-23T09:28:13;9.03;;;2.43;;
25627;SDS011;40915;50.826;4.356;2022-11-23T09:30:46;17.77;;;3.17;;
25627;SDS011;40915;50.826;4.356;2022-11-23T09:33:12;11.27;;;2.77;;
25627;SDS011;40915;50.826;4.356;2022-11-23T09:35:38;13.60;;;2.60;;
25627;SDS011;40915;50.826;4.356;2022-11-23T09:38:04;10.27;;;2.67;;
25627;SDS011;40915;50.826;4.356;2022-11-23T09:40:30;9.70;;;3.00;;
25627;SDS011;40915;50.826;4.356;2022-11-23T09:45:51;8.67;;;2.30;;
25627;SDS011;40915;50.826;4.356;2022-11-23T09:51:04;12.83;;;2.60;;
25627;SDS011;40915;50.826;4.356;2022-11-23T09:53:48;8.07;;;2.23;;
25627;SDS011;40915;50.826;4.356;2022-11-23T09:56:18;10.00;;;2.63;;
25627;SDS011;40915;50.826;4.356;2022-11-23T09:58:46;8.87;;;2.53;;
25627;SDS011;40915;50.826;4.356;2022-11-23T10:01:18;11.43;;;2.40;;
25627;SDS011;40915;50.826;4.356;2022-11-23T10:03:45;12.80;;;2.67;;
25627;SDS011;40915;50.826;4.356;2022-11-23T10:06:15;7.93;;;2.20;;
25627;SDS011;40915;50.826;4.356;2022-11-23T10:25:16;9.70;;;2.20;;
25627;SDS011;40915;50.826;4.356;2022-11-23T10:27:44;7.63;;;2.03;;
25627;SDS011;40915;50.826;4.356;2022-11-23T10:30:12;6.40;;;1.97;;
25627;SDS011;40915;50.826;4.356;2022-11-23T10:35:34;7.10;;;2.00;;
25627;SDS011;40915;50.826;4.356;2022-11-23T10:38:09;8.50;;;2.10;;
25627;SDS011;40915;50.826;4.356;2022-11-23T10:40:34;10.13;;;1.80;;
25627;SDS011;40915;50.826;4.356;2022-11-23T10:43:13;4.63;;;1.87;;
25627;SDS011;40915;50.826;4.356;2022-11-23T10:45:56;7.57;;;1.90;;
25627;SDS011;40915;50.826;4.356;2022-11-23T10:48:50;11.50;;;2.97;;
25627;SDS011;40915;50.826;4.356;2022-11-23T10:54:03;7.67;;;2.30;;
25627;SDS011;40915;50.826;4.356;2022-11-23T10:56:31;9.57;;;2.40;;
25627;SDS011;40915;50.826;4.356;2022-11-23T10:58:58;9.80;;;2.07;;
25627;SDS011;40915;50.826;4.356;2022-11-23T11:01:24;9.70;;;2.10;;
25627;SDS011;40915;50.826;4.356;2022-11-23T11:03:53;6.20;;;2.00;;
25627;SDS011;40915;50.826;4.356;2022-11-23T11:06:21;6.87;;;1.80;;
25627;SDS011;40915;50.826;4.356;2022-11-23T11:11:31;7.07;;;1.90;;
25627;SDS011;40915;50.826;4.356;2022-11-23T11:14:13;9.50;;;2.00;;
25627;SDS011;40915;50.826;4.356;2022-11-23T11:16:53;10.10;;;2.00;;
25627;SDS011;40915;50.826;4.356;2022-11-23T11:19:35;14.00;;;2.30;;
25627;SDS011;40915;50.826;4.356;2022-11-23T11:24:50;9.07;;;2.03;;
25627;SDS011;40915;50.826;4.356;2022-11-23T11:27:16;12.93;;;2.87;;
25627;SDS011;40915;50.826;4.356;2022-11-23T11:29:46;16.95;;;3.35;;
25627;SDS011;40915;50.826;4.356;2022-11-23T11:37:42;10.33;;;1.87;;
25627;SDS011;40915;50.826;4.356;2022-11-23T11:40:27;5.38;;;1.50;;
25627;SDS011;40915;50.826;4.356;2022-11-23T11:43:06;7.97;;;1.80;;
25627;SDS011;40915;50.826;4.356;2022-11-23T11:45:51;5.72;;;1.63;;
25627;SDS011;40915;50.826;4.356;2022-11-23T11:48:24;9.13;;;2.10;;
25627;SDS011;40915;50.826;4.356;2022-11-23T11:50:58;15.65;;;3.33;;
25627;SDS011;40915;50.826;4.356;2022-11-23T11:53:34;6.93;;;1.60;;
25627;SDS011;40915;50.826;4.356;2022-11-23T11:56:20;7.18;;;1.55;;
25627;SDS011;40915;50.826;4.356;2022-11-23T11:58:56;4.13;;;1.57;;
25627;SDS011;40915;50.826;4.356;2022-11-23T12:04:44;4.97;;;1.43;;
25627;SDS011;40915;50.826;4.356;2022-11-23T12:07:31;6.37;;;1.40;;
25627;SDS011;40915;50.826;4.356;2022-11-23T12:10:04;6.27;;;1.67;;
25627;SDS011;40915;50.826;4.356;2022-11-23T12:12:32;4.33;;;1.30;;
25627;SDS011;40915;50.826;4.356;2022-11-23T12:14:59;7.50;;;1.30;;
25627;SDS011;40915;50.826;4.356;2022-11-23T12:25:26;7.70;;;1.70;;
25627;SDS011;40915;50.826;4.356;2022-11-23T12:33:50;7.70;;;1.53;;
25627;SDS011;40915;50.826;4.356;2022-11-23T12:42:19;5.20;;;1.20;;
25627;SDS011;40915;50.826;4.356;2022-11-23T12:45:05;4.10;;;1.40;;
25627;SDS011;40915;50.826;4.356;2022-11-23T12:50:38;7.07;;;2.80;;
25627;SDS011;40915;50.826;4.356;2022-11-23T12:53:33;4.27;;;1.40;;
25627;SDS011;40915;50.826;4.356;2022-11-23T12:56:44;5.20;;;1.65;;
25627;SDS011;40915;50.826;4.356;2022-11-23T12:59:19;6.83;;;1.70;;
25627;SDS011;40915;50.826;4.356;2022-11-23T13:01:50;5.20;;;1.50;;
25627;SDS011;40915;50.826;4.356;2022-11-23T13:04:31;5.63;;;2.10;;
25627;SDS011;40915;50.826;4.356;2022-11-23T13:15:40;7.77;;;1.73;;
25627;SDS011;40915;50.826;4.356;2022-11-23T13:24:00;4.37;;;1.57;;
25627;SDS011;40915;50.826;4.356;2022-11-23T13:26:27;4.40;;;1.27;;
25627;SDS011;40915;50.826;4.356;2022-11-23T13:28:55;4.80;;;1.50;;
25627;SDS011;40915;50.826;4.356;2022-11-23T13:31:23;2.87;;;1.27;;
25627;SDS011;40915;50.826;4.356;2022-11-23T13:34:00;4.20;;;1.23;;
25627;SDS011;40915;50.826;4.356;2022-11-23T13:38:54;4.70;;;1.20;;
25627;SDS011;40915;50.826;4.356;2022-11-23T13:46:42;5.27;;;1.40;;
25627;SDS011;40915;50.826;4.356;2022-11-23T13:57:28;4.30;;;1.73;;
25627;SDS011;40915;50.826;4.356;2022-11-23T14:00:42;4.47;;;1.37;;
25627;SDS011;40915;50.826;4.356;2022-11-23T14:06:01;3.70;;;1.20;;
25627;SDS011;40915;50.826;4.356;2022-11-23T14:08:33;6.57;;;2.50;;
25627;SDS011;40915;50.826;4.356;2022-11-23T14:11:07;5.97;;;1.43;;
25627;SDS011;40915;50.826;4.356;2022-11-23T14:13:42;7.03;;;1.60;;
25627;SDS011;40915;50.826;4.356;2022-11-23T14:16:16;3.57;;;1.23;;
25627;SDS011;40915;50.826;4.356;2022-11-23T14:19:14;4.13;;;1.40;;
25627;SDS011;40915;50.826;4.356;2022-11-23T14:22:06;2.93;;;1.20;;
25627;SDS011;40915;50.826;4.356;2022-11-23T14:33:33;4.33;;;1.63;;
25627;SDS011;40915;50.826;4.356;2022-11-23T14:38:53;4.90;;;1.90;;
25627;SDS011;40915;50.826;4.356;2022-11-23T14:41:27;3.87;;;1.83;;
25627;SDS011;40915;50.826;4.356;2022-11-23T14:43:59;3.73;;;1.50;;
25627;SDS011;40915;50.826;4.356;2022-11-23T14:46:25;4.37;;;2.00;;
25627;SDS011;40915;50.826;4.356;2022-11-23T14:48:51;2.87;;;1.60;;
25627;SDS011;40915;50.826;4.356;2022-11-23T14:51:26;3.63;;;1.23;;
25627;SDS011;40915;50.826;4.356;2022-11-23T14:53:53;3.20;;;1.73;;
25627;SDS011;40915;50.826;4.356;2022-11-23T14:58:54;3.33;;;1.40;;
25627;SDS011;40915;50.826;4.356;2022-11-23T15:01:29;7.77;;;1.83;;
25627;SDS011;40915;50.826;4.356;2022-11-23T15:03:56;5.63;;;1.70;;
25627;SDS011;40915;50.826;4.356;2022-11-23T15:06:24;2.80;;;1.60;;
25627;SDS011;40915;50.826;4.356;2022-11-23T15:11:28;5.93;;;1.50;;
25627;SDS011;40915;50.826;4.356;2022-11-23T15:13:56;5.85;;;1.92;;
25627;SDS011;40915;50.826;4.356;2022-11-23T15:16:28;5.53;;;2.00;;
25627;SDS011;40915;50.826;4.356;2022-11-23T15:19:25;4.70;;;1.60;;
25627;SDS011;40915;50.826;4.356;2022-11-23T15:21:52;4.97;;;1.77;;
25627;SDS011;40915;50.826;4.356;2022-11-23T15:24:20;3.70;;;1.80;;
25627;SDS011;40915;50.826;4.356;2022-11-23T15:26:47;4.60;;;1.88;;
25627;SDS011;40915;50.826;4.356;2022-11-23T15:29:26;3.85;;;2.30;;
25627;SDS011;40915;50.826;4.356;2022-11-23T15:31:52;6.03;;;2.07;;
25627;SDS011;40915;50.826;4.356;2022-11-23T15:34:18;6.10;;;1.97;;
25627;SDS011;40915;50.826;4.356;2022-11-23T15:36:45;5.27;;;2.47;;
25627;SDS011;40915;50.826;4.356;2022-11-23T15:39:16;5.65;;;1.98;;
25627;SDS011;40915;50.826;4.356;2022-11-23T15:41:44;3.60;;;2.13;;
25627;SDS011;40915;50.826;4.356;2022-11-23T15:46:51;6.27;;;2.57;;
25627;SDS011;40915;50.826;4.356;2022-11-23T15:49:22;4.57;;;1.83;;
25627;SDS011;40915;50.826;4.356;2022-11-23T15:51:48;4.73;;;2.20;;
25627;SDS011;40915;50.826;4.356;2022-11-23T15:54:19;6.33;;;2.40;;
25627;SDS011;40915;50.826;4.356;2022-11-23T15:56:48;5.30;;;2.27;;
25627;SDS011;40915;50.826;4.356;2022-11-23T16:02:12;6.33;;;3.37;;
25627;SDS011;40915;50.826;4.356;2022-11-23T16:04:44;4.30;;;2.00;;
25627;SDS011;40915;50.826;4.356;2022-11-23T16:07:20;4.90;;;2.30;;
25627;SDS011;40915;50.826;4.356;2022-11-23T16:09:48;6.57;;;2.20;;
25627;SDS011;40915;50.826;4.356;2022-11-23T16:12:44;5.40;;;2.10;;
25627;SDS011;40915;50.826;4.356;2022-11-23T16:17:53;7.97;;;2.47;;
25627;SDS011;40915;50.826;4.356;2022-11-23T16:20:24;3.63;;;2.37;;
25627;SDS011;40915;50.826;4.356;2022-11-23T16:22:54;9.20;;;2.50;;
25627;SDS011;40915;50.826;4.356;2022-11-23T16:25:30;6.83;;;3.03;;
25627;SDS011;40915;50.826;4.356;2022-11-23T16:30:34;9.27;;;3.17;;
25627;SDS011;40915;50.826;4.356;2022-11-23T16:33:04;6.90;;;3.37;;
25627;SDS011;40915;50.826;4.356;2022-11-23T16:35:34;7.77;;;3.40;;
25627;SDS011;40915;50.826;4.356;2022-11-23T16:38:00;9.47;;;3.27;;
25627;SDS011;40915;50.826;4.356;2022-11-23T16:40:25;7.27;;;3.13;;
25627;SDS011;40915;50.826;4.356;2022-11-23T16:42:51;8.93;;;3.47;;
25627;SDS011;40915;50.826;4.356;2022-11-23T16:45:17;8.20;;;3.60;;
25627;SDS011;40915;50.826;4.356;2022-11-23T16:47:53;10.70;;;3.30;;
25627;SDS011;40915;50.826;4.356;2022-11-23T16:50:21;9.93;;;4.20;;
25627;SDS011;40915;50.826;4.356;2022-11-23T16:52:47;9.80;;;3.80;;
25627;SDS011;40915;50.826;4.356;2022-11-23T16:55:13;12.90;;;5.57;;
25627;SDS011;40915;50.826;4.356;2022-11-23T16:57:39;8.83;;;3.77;;
25627;SDS011;40915;50.826;4.356;2022-11-23T17:00:10;10.47;;;4.40;;
25627;SDS011;40915;50.826;4.356;2022-11-23T17:02:41;13.73;;;4.70;;
25627;SDS011;40915;50.826;4.356;2022-11-23T17:05:17;12.40;;;4.77;;